sensor_id;sensor_type;location;lat;lon;timestamp;pressure;altitude;pressure_sealevel;temperature;humidity
37852;BME280;23691;52.486;4.650;2023-12-29T00:01:54;100460.66;;;11.65;80.52
37852;BME280;23691;52.486;4.650;2023-12-29T00:04:21;100438.19;;;11.66;80.55
37852;BME280;23691;52.486;4.650;2023-12-29T00:06:46;100438.84;;;11.68;80.34
37852;BME280;23691;52.486;4.650;2023-12-29T00:09:15;100449.22;;;11.71;80.56
37852;BME280;23691;52.486;4.650;2023-12-29T00:11:40;100447.34;;;11.71;80.27
37852;BME280;23691;52.486;4.650;2023-12-29T00:14:07;100441.00;;;11.72;80.25
37852;BME280;23691;52.486;4.650;2023-12-29T00:16:32;100436.28;;;11.74;80.24
37852;BME280;23691;52.486;4.650;2023-12-29T00:18:57;100435.91;;;11.77;80.47
37852;BME280;23691;52.486;4.650;2023-12-29T00:21:23;100431.22;;;11.79;80.42
37852;BME280;23691;52.486;4.650;2023-12-29T00:23:48;100401.06;;;11.77;80.32
37852;BME280;23691;52.486;4.650;2023-12-29T00:26:17;100411.81;;;11.77;80.68
37852;BME280;23691;52.486;4.650;2023-12-29T00:28:43;100408.28;;;11.77;80.38
37852;BME280;23691;52.486;4.650;2023-12-29T00:31:08;100387.84;;;11.76;80.39
37852;BME280;23691;52.486;4.650;2023-12-29T00:33:34;100411.81;;;11.77;80.46
37852;BME280;23691;52.486;4.650;2023-12-29T00:36:00;100413.66;;;11.77;80.39
37852;BME280;23691;52.486;4.650;2023-12-29T00:38:29;100402.09;;;11.76;80.62
37852;BME280;23691;52.486;4.650;2023-12-29T00:40:54;100418.19;;;11.76;80.49
37852;BME280;23691;52.486;4.650;2023-12-29T00:43:20;100414.66;;;11.76;80.62
37852;BME280;23691;52.486;4.650;2023-12-29T00:45:45;100422.69;;;11.76;80.20
37852;BME280;23691;52.486;4.650;2023-12-29T00:48:10;100410.16;;;11.76;80.56
37852;BME280;23691;52.486;4.650;2023-12-29T00:50:36;100387.03;;;11.75;80.19
37852;BME280;23691;52.486;4.650;2023-12-29T00:53:01;100395.88;;;11.76;80.31
37852;BME280;23691;52.486;4.650;2023-12-29T00:55:26;100403.94;;;11.76;80.22
37852;BME280;23691;52.486;4.650;2023-12-29T00:57:53;100398.78;;;11.74;80.35
37852;BME280;23691;52.486;4.650;2023-12-29T01:00:18;100417.53;;;11.74;80.32
37852;BME280;23691;52.486;4.650;2023-12-29T01:02:44;100409.50;;;11.74;80.22
37852;BME280;23691;52.486;4.650;2023-12-29T01:05:14;100396.91;;;11.75;80.29
37852;BME280;23691;52.486;4.650;2023-12-29T01:07:40;100410.69;;;11.72;80.32
37852;BME280;23691;52.486;4.650;2023-12-29T01:10:06;100397.28;;;11.72;80.34
37852;BME280;23691;52.486;4.650;2023-12-29T01:12:31;100400.16;;;11.70;80.46
37852;BME280;23691;52.486;4.650;2023-12-29T01:14:57;100392.94;;;11.71;80.35
37852;BME280;23691;52.486;4.650;2023-12-29T01:17:22;100406.31;;;11.71;80.35
37852;BME280;23691;52.486;4.650;2023-12-29T01:19:47;100376.84;;;11.71;80.46
37852;BME280;23691;52.486;4.650;2023-12-29T01:22:13;100390.91;;;11.73;80.38
37852;BME280;23691;52.486;4.650;2023-12-29T01:24:38;100395.22;;;11.74;80.22
37852;BME280;23691;52.486;4.650;2023-12-29T01:27:04;100400.44;;;11.75;80.07
37852;BME280;23691;52.486;4.650;2023-12-29T01:29:30;100408.63;;;11.74;80.01
37852;BME280;23691;52.486;4.650;2023-12-29T01:31:55;100414.19;;;11.72;80.12
37852;BME280;23691;52.486;4.650;2023-12-29T01:34:21;100418.72;;;11.72;79.97
37852;BME280;23691;52.486;4.650;2023-12-29T01:36:46;100403.66;;;11.71;80.06
37852;BME280;23691;52.486;4.650;2023-12-29T01:39:11;100425.47;;;11.68;79.87
37852;BME280;23691;52.486;4.650;2023-12-29T01:41:37;100413.53;;;11.70;79.90
37852;BME280;23691;52.486;4.650;2023-12-29T01:44:18;100415.41;;;11.70;79.93
37852;BME280;23691;52.486;4.650;2023-12-29T01:46:51;100421.28;;;11.65;79.86
37852;BME280;23691;52.486;4.650;2023-12-29T01:49:20;100413.44;;;11.64;79.87
37852;BME280;23691;52.486;4.650;2023-12-29T01:51:49;100429.34;;;11.65;80.37
37852;BME280;23691;52.486;4.650;2023-12-29T01:54:15;100420.47;;;11.65;80.04
37852;BME280;23691;52.486;4.650;2023-12-29T01:56:41;100427.69;;;11.64;79.93
37852;BME280;23691;52.486;4.650;2023-12-29T01:59:07;100424.81;;;11.66;79.80
37852;BME280;23691;52.486;4.650;2023-12-29T02:01:33;100442.72;;;11.65;79.74
37852;BME280;23691;52.486;4.650;2023-12-29T02:03:58;100415.28;;;11.63;79.79
37852;BME280;23691;52.486;4.650;2023-12-29T02:06:24;100402.72;;;11.64;79.24
37852;BME280;23691;52.486;4.650;2023-12-29T02:08:51;100409.75;;;11.65;78.69
37852;BME280;23691;52.486;4.650;2023-12-29T02:11:16;100413.63;;;11.62;78.59
37852;BME280;23691;52.486;4.650;2023-12-29T02:13:42;100430.38;;;11.64;78.56
37852;BME280;23691;52.486;4.650;2023-12-29T02:16:13;100442.06;;;11.63;78.51
37852;BME280;23691;52.486;4.650;2023-12-29T02:18:42;100426.16;;;11.61;78.97
37852;BME280;23691;52.486;4.650;2023-12-29T02:21:09;100430.03;;;11.59;79.24
37852;BME280;23691;52.486;4.650;2023-12-29T02:23:35;100441.41;;;11.61;79.42
37852;BME280;23691;52.486;4.650;2023-12-29T02:26:03;100435.41;;;11.59;79.42
37852;BME280;23691;52.486;4.650;2023-12-29T02:28:34;100447.81;;;11.60;79.50
37852;BME280;23691;52.486;4.650;2023-12-29T02:31:07;100442.44;;;11.60;79.41
37852;BME280;23691;52.486;4.650;2023-12-29T02:33:38;100438.28;;;11.57;79.45
37852;BME280;23691;52.486;4.650;2023-12-29T02:36:05;100433.75;;;11.58;79.49
37852;BME280;23691;52.486;4.650;2023-12-29T02:38:31;100432.91;;;11.57;79.22
37852;BME280;23691;52.486;4.650;2023-12-29T02:40:58;100440.13;;;11.57;79.51
37852;BME280;23691;52.486;4.650;2023-12-29T02:43:24;100435.13;;;11.54;79.66
37852;BME280;23691;52.486;4.650;2023-12-29T02:45:49;100434.28;;;11.53;79.46
37852;BME280;23691;52.486;4.650;2023-12-29T02:48:14;100432.44;;;11.54;79.55
37852;BME280;23691;52.486;4.650;2023-12-29T02:50:40;100440.69;;;11.52;79.69
37852;BME280;23691;52.486;4.650;2023-12-29T02:53:05;100439.47;;;11.55;79.80
37852;BME280;23691;52.486;4.650;2023-12-29T02:55:30;100424.22;;;11.55;79.85
37852;BME280;23691;52.486;4.650;2023-12-29T02:57:56;100424.88;;;11.57;79.84
37852;BME280;23691;52.486;4.650;2023-12-29T03:00:21;100424.06;;;11.57;79.81
37852;BME280;23691;52.486;4.650;2023-12-29T03:02:47;100436.59;;;11.56;79.67
37852;BME280;23691;52.486;4.650;2023-12-29T03:05:12;100446.31;;;11.57;79.14
37852;BME280;23691;52.486;4.650;2023-12-29T03:07:37;100447.50;;;11.55;78.44
37852;BME280;23691;52.486;4.650;2023-12-29T03:10:05;100436.13;;;11.53;77.53
37852;BME280;23691;52.486;4.650;2023-12-29T03:12:30;100449.53;;;11.53;76.90
37852;BME280;23691;52.486;4.650;2023-12-29T03:14:56;100442.53;;;11.52;76.00
37852;BME280;23691;52.486;4.650;2023-12-29T03:17:21;100445.00;;;11.53;75.21
37852;BME280;23691;52.486;4.650;2023-12-29T03:19:47;100443.53;;;11.51;74.06
37852;BME280;23691;52.486;4.650;2023-12-29T03:22:12;100436.69;;;11.48;73.78
37852;BME280;23691;52.486;4.650;2023-12-29T03:24:40;100440.38;;;11.47;73.17
37852;BME280;23691;52.486;4.650;2023-12-29T03:27:05;100431.84;;;11.44;72.62
37852;BME280;23691;52.486;4.650;2023-12-29T03:29:31;100438.91;;;11.45;72.05
37852;BME280;23691;52.486;4.650;2023-12-29T03:31:56;100432.06;;;11.42;71.75
37852;BME280;23691;52.486;4.650;2023-12-29T03:34:21;100417.81;;;11.42;71.35
37852;BME280;23691;52.486;4.650;2023-12-29T03:36:47;100414.66;;;11.38;71.37
37852;BME280;23691;52.486;4.650;2023-12-29T03:39:12;100422.03;;;11.36;71.07
37852;BME280;23691;52.486;4.650;2023-12-29T03:41:38;100410.31;;;11.37;70.73
37852;BME280;23691;52.486;4.650;2023-12-29T03:44:03;100406.16;;;11.34;70.25
37852;BME280;23691;52.486;4.650;2023-12-29T03:46:28;100415.38;;;11.32;70.21
37852;BME280;23691;52.486;4.650;2023-12-29T03:48:54;100410.88;;;11.32;69.92
37852;BME280;23691;52.486;4.650;2023-12-29T03:51:20;100402.84;;;11.32;69.73
37852;BME280;23691;52.486;4.650;2023-12-29T03:53:45;100411.88;;;11.31;69.39
37852;BME280;23691;52.486;4.650;2023-12-29T03:56:18;100422.78;;;11.30;69.50
37852;BME280;23691;52.486;4.650;2023-12-29T03:58:44;100427.94;;;11.31;69.39
37852;BME280;23691;52.486;4.650;2023-12-29T04:01:10;100417.06;;;11.33;69.33
37852;BME280;23691;52.486;4.650;2023-12-29T04:03:37;100412.34;;;11.35;69.31
37852;BME280;23691;52.486;4.650;2023-12-29T04:06:03;100413.19;;;11.35;69.39
37852;BME280;23691;52.486;4.650;2023-12-29T04:08:28;100411.34;;;11.36;69.58
37852;BME280;23691;52.486;4.650;2023-12-29T04:10:54;100411.34;;;11.36;69.73
37852;BME280;23691;52.486;4.650;2023-12-29T04:13:19;100414.00;;;11.36;69.72
37852;BME280;23691;52.486;4.650;2023-12-29T04:15:44;100409.47;;;11.36;70.17
37852;BME280;23691;52.486;4.650;2023-12-29T04:18:10;100411.16;;;11.37;70.30
37852;BME280;23691;52.486;4.650;2023-12-29T04:20:35;100404.63;;;11.40;70.12
37852;BME280;23691;52.486;4.650;2023-12-29T04:23:01;100399.59;;;11.37;70.56
37852;BME280;23691;52.486;4.650;2023-12-29T04:25:26;100404.41;;;11.42;70.76
37852;BME280;23691;52.486;4.650;2023-12-29T04:27:51;100417.47;;;11.45;70.82
37852;BME280;23691;52.486;4.650;2023-12-29T04:30:17;100402.03;;;11.47;70.75
37852;BME280;23691;52.486;4.650;2023-12-29T04:32:42;100409.22;;;11.46;71.08
37852;BME280;23691;52.486;4.650;2023-12-29T04:35:08;100412.28;;;11.43;71.40
37852;BME280;23691;52.486;4.650;2023-12-29T04:37:37;100402.22;;;11.45;71.69
37852;BME280;23691;52.486;4.650;2023-12-29T04:40:02;100407.38;;;11.47;71.88
37852;BME280;23691;52.486;4.650;2023-12-29T04:42:28;100381.44;;;11.47;72.33
37852;BME280;23691;52.486;4.650;2023-12-29T04:44:53;100392.78;;;11.49;72.08
37852;BME280;23691;52.486;4.650;2023-12-29T04:47:19;100388.16;;;11.43;72.38
37852;BME280;23691;52.486;4.650;2023-12-29T04:49:44;100389.81;;;11.44;72.26
37852;BME280;23691;52.486;4.650;2023-12-29T04:52:10;100389.81;;;11.44;72.24
37852;BME280;23691;52.486;4.650;2023-12-29T04:54:35;100406.91;;;11.43;72.00
37852;BME280;23691;52.486;4.650;2023-12-29T04:57:00;100412.56;;;11.48;71.94
37852;BME280;23691;52.486;4.650;2023-12-29T04:59:26;100411.75;;;11.48;71.92
37852;BME280;23691;52.486;4.650;2023-12-29T05:01:51;100405.56;;;11.47;71.79
37852;BME280;23691;52.486;4.650;2023-12-29T05:04:16;100410.72;;;11.49;71.25
37852;BME280;23691;52.486;4.650;2023-12-29T05:06:42;100397.16;;;11.50;71.31
37852;BME280;23691;52.486;4.650;2023-12-29T05:09:07;100404.16;;;11.51;70.98
37852;BME280;23691;52.486;4.650;2023-12-29T05:11:33;100399.00;;;11.50;70.79
37852;BME280;23691;52.486;4.650;2023-12-29T05:13:58;100388.28;;;11.50;70.77
37852;BME280;23691;52.486;4.650;2023-12-29T05:16:24;100372.38;;;11.48;70.68
37852;BME280;23691;52.486;4.650;2023-12-29T05:18:49;100372.38;;;11.48;70.57
37852;BME280;23691;52.486;4.650;2023-12-29T05:21:17;100385.59;;;11.50;70.66
37852;BME280;23691;52.486;4.650;2023-12-29T05:23:44;100390.97;;;11.50;70.33
37852;BME280;23691;52.486;4.650;2023-12-29T05:26:10;100399.00;;;11.50;70.38
37852;BME280;23691;52.486;4.650;2023-12-29T05:28:37;100390.13;;;11.49;70.51
37852;BME280;23691;52.486;4.650;2023-12-29T05:31:03;100378.41;;;11.50;70.51
37852;BME280;23691;52.486;4.650;2023-12-29T05:33:30;100388.47;;;11.48;70.60
37852;BME280;23691;52.486;4.650;2023-12-29T05:35:56;100387.25;;;11.51;70.78
37852;BME280;23691;52.486;4.650;2023-12-29T05:38:21;100390.13;;;11.49;70.77
37852;BME280;23691;52.486;4.650;2023-12-29T05:40:47;100384.97;;;11.48;70.94
37852;BME280;23691;52.486;4.650;2023-12-29T05:43:12;100385.78;;;11.48;71.24
37852;BME280;23691;52.486;4.650;2023-12-29T05:45:37;100389.28;;;11.49;70.97
37852;BME280;23691;52.486;4.650;2023-12-29T05:48:03;100373.22;;;11.49;71.07
37852;BME280;23691;52.486;4.650;2023-12-29T05:50:28;100369.72;;;11.48;71.46
37852;BME280;23691;52.486;4.650;2023-12-29T05:52:54;100367.03;;;11.48;71.67
37852;BME280;23691;52.486;4.650;2023-12-29T05:55:19;100366.84;;;11.50;71.95
37852;BME280;23691;52.486;4.650;2023-12-29T05:57:44;100347.56;;;11.54;72.14
37852;BME280;23691;52.486;4.650;2023-12-29T06:00:11;100366.31;;;11.54;72.33
37852;BME280;23691;52.486;4.650;2023-12-29T06:02:43;100381.53;;;11.54;72.45
37852;BME280;23691;52.486;4.650;2023-12-29T06:05:11;100371.47;;;11.56;72.59
37852;BME280;23691;52.486;4.650;2023-12-29T06:07:37;100384.03;;;11.55;72.85
37852;BME280;23691;52.486;4.650;2023-12-29T06:10:03;100377.66;;;11.56;72.92
37852;BME280;23691;52.486;4.650;2023-12-29T06:12:29;100349.22;;;11.55;73.13
37852;BME280;23691;52.486;4.650;2023-12-29T06:14:55;100381.38;;;11.55;73.03
37852;BME280;23691;52.486;4.650;2023-12-29T06:17:20;100399.09;;;11.56;73.25
37852;BME280;23691;52.486;4.650;2023-12-29T06:19:45;100401.31;;;11.53;73.23
37852;BME280;23691;52.486;4.650;2023-12-29T06:22:11;100387.25;;;11.51;73.65
37852;BME280;23691;52.486;4.650;2023-12-29T06:24:42;100395.13;;;11.52;73.69
37852;BME280;23691;52.486;4.650;2023-12-29T06:27:08;100402.88;;;11.47;73.85
37852;BME280;23691;52.486;4.650;2023-12-29T06:29:34;100394.84;;;11.47;73.72
37852;BME280;23691;52.486;4.650;2023-12-29T06:32:00;100402.69;;;11.49;73.91
37852;BME280;23691;52.486;4.650;2023-12-29T06:34:25;100409.88;;;11.48;73.83
37852;BME280;23691;52.486;4.650;2023-12-29T06:36:51;100398.34;;;11.48;74.02
37852;BME280;23691;52.486;4.650;2023-12-29T06:39:16;100407.22;;;11.48;73.90
37852;BME280;23691;52.486;4.650;2023-12-29T06:41:42;100409.72;;;11.50;73.90
37852;BME280;23691;52.486;4.650;2023-12-29T06:44:07;100395.47;;;11.49;73.82
37852;BME280;23691;52.486;4.650;2023-12-29T06:46:33;100415.91;;;11.50;73.68
37852;BME280;23691;52.486;4.650;2023-12-29T06:48:58;100399.00;;;11.50;73.57
37852;BME280;23691;52.486;4.650;2023-12-29T06:51:24;100391.78;;;11.50;73.73
37852;BME280;23691;52.486;4.650;2023-12-29T06:53:49;100395.47;;;11.49;73.77
37852;BME280;23691;52.486;4.650;2023-12-29T06:56:15;100394.47;;;11.50;73.49
37852;BME280;23691;52.486;4.650;2023-12-29T06:58:41;100386.06;;;11.53;73.66
37852;BME280;23691;52.486;4.650;2023-12-29T07:01:06;100395.13;;;11.52;73.51
37852;BME280;23691;52.486;4.650;2023-12-29T07:03:32;100393.81;;;11.48;73.47
37852;BME280;23691;52.486;4.650;2023-12-29T07:06:00;100397.03;;;11.44;73.83
37852;BME280;23691;52.486;4.650;2023-12-29T07:08:26;100398.06;;;11.43;73.83
37852;BME280;23691;52.486;4.650;2023-12-29T07:10:51;100400.44;;;11.37;73.95
37852;BME280;23691;52.486;4.650;2023-12-29T07:13:16;100397.56;;;11.39;73.98
37852;BME280;23691;52.486;4.650;2023-12-29T07:15:42;100409.16;;;11.39;74.01
37852;BME280;23691;52.486;4.650;2023-12-29T07:18:07;100406.63;;;11.38;74.14
37852;BME280;23691;52.486;4.650;2023-12-29T07:20:32;100410.63;;;11.42;73.75
37852;BME280;23691;52.486;4.650;2023-12-29T07:22:58;100408.56;;;11.44;74.06
37852;BME280;23691;52.486;4.650;2023-12-29T07:25:23;100413.75;;;11.46;73.89
37852;BME280;23691;52.486;4.650;2023-12-29T07:27:49;100408.41;;;11.46;74.11
37852;BME280;23691;52.486;4.650;2023-12-29T07:30:14;100418.59;;;11.50;73.69
37852;BME280;23691;52.486;4.650;2023-12-29T07:32:40;100424.59;;;11.52;73.70
37852;BME280;23691;52.486;4.650;2023-12-29T07:35:05;100414.34;;;11.56;74.10
37852;BME280;23691;52.486;4.650;2023-12-29T07:37:31;100426.09;;;11.55;74.08
37852;BME280;23691;52.486;4.650;2023-12-29T07:39:56;100420.53;;;11.56;74.35
37852;BME280;23691;52.486;4.650;2023-12-29T07:42:22;100417.69;;;11.58;74.60
37852;BME280;23691;52.486;4.650;2023-12-29T07:44:47;100429.22;;;11.58;74.92
37852;BME280;23691;52.486;4.650;2023-12-29T07:47:12;100422.66;;;11.61;75.11
37852;BME280;23691;52.486;4.650;2023-12-29T07:49:38;100421.66;;;11.62;75.45
37852;BME280;23691;52.486;4.650;2023-12-29T07:52:03;100411.78;;;11.63;75.55
37852;BME280;23691;52.486;4.650;2023-12-29T07:54:29;100446.25;;;11.66;75.88
37852;BME280;23691;52.486;4.650;2023-12-29T07:56:54;100441.91;;;11.65;76.15
37852;BME280;23691;52.486;4.650;2023-12-29T07:59:20;100440.06;;;11.65;76.37
37852;BME280;23691;52.486;4.650;2023-12-29T08:01:45;100442.25;;;11.61;76.59
37852;BME280;23691;52.486;4.650;2023-12-29T08:04:10;100441.25;;;11.63;77.11
37852;BME280;23691;52.486;4.650;2023-12-29T08:06:39;100440.06;;;11.65;77.20
37852;BME280;23691;52.486;4.650;2023-12-29T08:09:04;100448.91;;;11.66;77.63
37852;BME280;23691;52.486;4.650;2023-12-29T08:11:30;100443.03;;;11.70;77.49
37852;BME280;23691;52.486;4.650;2023-12-29T08:13:56;100441.38;;;11.69;77.58
37852;BME280;23691;52.486;4.650;2023-12-29T08:16:21;100436.34;;;11.66;77.89
37852;BME280;23691;52.486;4.650;2023-12-29T08:18:49;100450.41;;;11.68;77.84
37852;BME280;23691;52.486;4.650;2023-12-29T08:21:19;100444.22;;;11.68;78.16
37852;BME280;23691;52.486;4.650;2023-12-29T08:23:46;100442.00;;;11.71;77.99
37852;BME280;23691;52.486;4.650;2023-12-29T08:26:12;100435.63;;;11.72;78.26
37852;BME280;23691;52.486;4.650;2023-12-29T08:28:37;100435.63;;;11.72;78.13
37852;BME280;23691;52.486;4.650;2023-12-29T08:31:03;100431.75;;;11.75;78.06
37852;BME280;23691;52.486;4.650;2023-12-29T08:33:29;100440.63;;;11.75;77.96
37852;BME280;23691;52.486;4.650;2023-12-29T08:35:54;100434.16;;;11.70;78.03
37852;BME280;23691;52.486;4.650;2023-12-29T08:38:26;100426.78;;;11.72;78.26
37852;BME280;23691;52.486;4.650;2023-12-29T08:40:52;100429.25;;;11.73;78.09
37852;BME280;23691;52.486;4.650;2023-12-29T08:43:17;100417.16;;;11.77;78.04
37852;BME280;23691;52.486;4.650;2023-12-29T08:45:47;100423.56;;;11.76;77.71
37852;BME280;23691;52.486;4.650;2023-12-29T08:48:12;100421.69;;;11.77;77.75
37852;BME280;23691;52.486;4.650;2023-12-29T08:50:38;100433.41;;;11.76;77.71
37852;BME280;23691;52.486;4.650;2023-12-29T08:53:03;100419.66;;;11.79;77.66
37852;BME280;23691;52.486;4.650;2023-12-29T08:55:29;100423.34;;;11.78;77.52
37852;BME280;23691;52.486;4.650;2023-12-29T08:57:54;100409.28;;;11.76;77.82
37852;BME280;23691;52.486;4.650;2023-12-29T09:00:20;100418.34;;;11.75;77.64
37852;BME280;23691;52.486;4.650;2023-12-29T09:02:45;100406.97;;;11.73;78.12
37852;BME280;23691;52.486;4.650;2023-12-29T09:05:12;100433.31;;;11.69;78.33
37852;BME280;23691;52.486;4.650;2023-12-29T09:07:37;100436.34;;;11.66;78.73
37852;BME280;23691;52.486;4.650;2023-12-29T09:10:03;100438.50;;;11.71;78.78
37852;BME280;23691;52.486;4.650;2023-12-29T09:12:33;100474.06;;;11.65;79.57
37852;BME280;23691;52.486;4.650;2023-12-29T09:14:58;100493.34;;;11.60;79.57
37852;BME280;23691;52.486;4.650;2023-12-29T09:17:24;100476.50;;;11.51;79.17
37852;BME280;23691;52.486;4.650;2023-12-29T09:19:49;100459.47;;;11.44;77.47
37852;BME280;23691;52.486;4.650;2023-12-29T09:22:14;100468.91;;;11.40;76.36
37852;BME280;23691;52.486;4.650;2023-12-29T09:24:41;100472.94;;;11.36;75.90
37852;BME280;23691;52.486;4.650;2023-12-29T09:27:06;100471.28;;;11.35;75.24
37852;BME280;23691;52.486;4.650;2023-12-29T09:29:31;100484.16;;;11.39;75.29
37852;BME280;23691;52.486;4.650;2023-12-29T09:31:57;100479.25;;;11.43;74.79
37852;BME280;23691;52.486;4.650;2023-12-29T09:34:22;100483.72;;;11.51;75.04
37852;BME280;23691;52.486;4.650;2023-12-29T09:36:48;100489.56;;;11.54;75.05
37852;BME280;23691;52.486;4.650;2023-12-29T09:39:13;100476.09;;;11.63;74.57
37852;BME280;23691;52.486;4.650;2023-12-29T09:41:43;100480.25;;;11.65;74.61
37852;BME280;23691;52.486;4.650;2023-12-29T09:44:13;100492.56;;;11.74;74.09
37852;BME280;23691;52.486;4.650;2023-12-29T09:46:41;100491.00;;;11.80;73.76
37852;BME280;23691;52.486;4.650;2023-12-29T09:49:08;100490.78;;;11.90;73.52
37852;BME280;23691;52.486;4.650;2023-12-29T09:51:34;100499.13;;;11.95;73.14
37852;BME280;23691;52.486;4.650;2023-12-29T09:54:00;100503.44;;;11.96;73.01
37852;BME280;23691;52.486;4.650;2023-12-29T09:56:26;100505.31;;;11.95;72.81
37852;BME280;23691;52.486;4.650;2023-12-29T09:58:52;100511.69;;;11.94;72.52
37852;BME280;23691;52.486;4.650;2023-12-29T10:01:20;100500.97;;;11.94;72.47
37852;BME280;23691;52.486;4.650;2023-12-29T10:03:47;100507.53;;;11.92;72.29
37852;BME280;23691;52.486;4.650;2023-12-29T10:06:19;100496.81;;;11.92;72.10
37852;BME280;23691;52.486;4.650;2023-12-29T10:08:47;100503.16;;;11.91;71.91
37852;BME280;23691;52.486;4.650;2023-12-29T10:11:18;100513.34;;;11.95;71.39
37852;BME280;23691;52.486;4.650;2023-12-29T10:13:45;100523.25;;;11.95;71.00
37852;BME280;23691;52.486;4.650;2023-12-29T10:16:38;100506.78;;;11.98;70.89
37852;BME280;23691;52.486;4.650;2023-12-29T10:19:37;100524.72;;;11.97;70.72
37852;BME280;23691;52.486;4.650;2023-12-29T10:22:21;100523.69;;;11.98;70.78
37852;BME280;23691;52.486;4.650;2023-12-29T10:24:48;100522.03;;;11.97;70.87
37852;BME280;23691;52.486;4.650;2023-12-29T10:27:15;100516.50;;;11.99;71.20
37852;BME280;23691;52.486;4.650;2023-12-29T10:29:41;100531.19;;;12.03;71.43
37852;BME280;23691;52.486;4.650;2023-12-29T10:32:07;100523.16;;;12.03;71.47
37852;BME280;23691;52.486;4.650;2023-12-29T10:34:32;100527.31;;;12.06;71.21
37852;BME280;23691;52.486;4.650;2023-12-29T10:36:58;100542.41;;;12.07;71.01
37852;BME280;23691;52.486;4.650;2023-12-29T10:39:25;100533.34;;;12.08;70.90
37852;BME280;23691;52.486;4.650;2023-12-29T10:42:03;100539.00;;;12.13;70.55
37852;BME280;23691;52.486;4.650;2023-12-29T10:44:29;100537.50;;;12.10;70.26
37852;BME280;23691;52.486;4.650;2023-12-29T10:46:54;100522.91;;;12.13;70.00
37852;BME280;23691;52.486;4.650;2023-12-29T10:49:23;100532.25;;;12.17;69.58
37852;BME280;23691;52.486;4.650;2023-12-29T10:51:48;100530.88;;;12.21;69.32
37852;BME280;23691;52.486;4.650;2023-12-29T10:54:20;100534.03;;;12.24;69.08
37852;BME280;23691;52.486;4.650;2023-12-29T10:57:00;100542.34;;;12.30;68.78
37852;BME280;23691;52.486;4.650;2023-12-29T10:59:28;100547.25;;;12.26;68.40
37852;BME280;23691;52.486;4.650;2023-12-29T11:01:55;100548.91;;;12.27;67.63
37852;BME280;23691;52.486;4.650;2023-12-29T11:04:23;100564.19;;;12.27;67.38
37852;BME280;23691;52.486;4.650;2023-12-29T11:06:49;100555.75;;;12.30;67.40
37852;BME280;23691;52.486;4.650;2023-12-29T11:09:28;100559.75;;;12.34;67.31
37852;BME280;23691;52.486;4.650;2023-12-29T11:11:56;100560.41;;;12.36;67.25
37852;BME280;23691;52.486;4.650;2023-12-29T11:14:23;100552.53;;;12.34;67.43
37852;BME280;23691;52.486;4.650;2023-12-29T11:16:51;100553.00;;;12.38;67.49
37852;BME280;23691;52.486;4.650;2023-12-29T11:19:18;100554.78;;;12.45;67.21
37852;BME280;23691;52.486;4.650;2023-12-29T11:21:47;100557.75;;;12.51;66.50
37852;BME280;23691;52.486;4.650;2023-12-29T11:24:15;100554.03;;;12.52;66.22
37852;BME280;23691;52.486;4.650;2023-12-29T11:26:41;100571.78;;;12.53;65.94
37852;BME280;23691;52.486;4.650;2023-12-29T11:29:09;100586.41;;;12.50;65.21
37852;BME280;23691;52.486;4.650;2023-12-29T11:31:36;100574.03;;;12.49;64.64
37852;BME280;23691;52.486;4.650;2023-12-29T11:34:22;100578.34;;;12.50;64.65
37852;BME280;23691;52.486;4.650;2023-12-29T11:36:50;100563.47;;;12.48;64.14
37852;BME280;23691;52.486;4.650;2023-12-29T11:39:27;100556.97;;;12.42;64.43
37852;BME280;23691;52.486;4.650;2023-12-29T11:42:14;100565.69;;;12.44;64.66
37852;BME280;23691;52.486;4.650;2023-12-29T11:44:43;100565.50;;;12.45;64.84
37852;BME280;23691;52.486;4.650;2023-12-29T11:47:38;100556.53;;;12.53;65.25
37852;BME280;23691;52.486;4.650;2023-12-29T11:50:04;100565.25;;;12.55;65.47
37852;BME280;23691;52.486;4.650;2023-12-29T11:52:36;100563.84;;;12.59;65.63
37852;BME280;23691;52.486;4.650;2023-12-29T11:55:12;100547.56;;;12.61;65.33
37852;BME280;23691;52.486;4.650;2023-12-29T11:57:41;100559.13;;;12.61;65.54
37852;BME280;23691;52.486;4.650;2023-12-29T12:00:07;100553.31;;;12.58;65.31
37852;BME280;23691;52.486;4.650;2023-12-29T12:02:33;100558.03;;;12.56;65.21
37852;BME280;23691;52.486;4.650;2023-12-29T12:04:59;100557.19;;;12.55;64.75
37852;BME280;23691;52.486;4.650;2023-12-29T12:09:50;100556.88;;;12.50;64.72
37852;BME280;23691;52.486;4.650;2023-12-29T12:12:41;100541.81;;;12.49;64.42
37852;BME280;23691;52.486;4.650;2023-12-29T12:18:02;100557.47;;;12.45;63.89
37852;BME280;23691;52.486;4.650;2023-12-29T12:20:33;100562.56;;;12.40;63.78
37852;BME280;23691;52.486;4.650;2023-12-29T12:23:00;100560.88;;;12.39;63.69
37852;BME280;23691;52.486;4.650;2023-12-29T12:25:27;100558.84;;;12.41;63.94
37852;BME280;23691;52.486;4.650;2023-12-29T12:27:58;100562.19;;;12.43;64.22
37852;BME280;23691;52.486;4.650;2023-12-29T12:30:24;100566.34;;;12.46;64.09
37852;BME280;23691;52.486;4.650;2023-12-29T12:33:00;100551.72;;;12.49;63.93
37852;BME280;23691;52.486;4.650;2023-12-29T12:35:25;100552.56;;;12.49;63.85
37852;BME280;23691;52.486;4.650;2023-12-29T12:38:13;100548.84;;;12.50;63.75
37852;BME280;23691;52.486;4.650;2023-12-29T12:40:40;100545.16;;;12.51;63.84
37852;BME280;23691;52.486;4.650;2023-12-29T12:43:06;100548.28;;;12.55;63.66
37852;BME280;23691;52.486;4.650;2023-12-29T12:45:34;100545.25;;;12.58;63.46
37852;BME280;23691;52.486;4.650;2023-12-29T12:48:13;100550.16;;;12.54;63.47
37852;BME280;23691;52.486;4.650;2023-12-29T12:50:45;100551.06;;;12.46;63.30
37852;BME280;23691;52.486;4.650;2023-12-29T12:53:12;100532.28;;;12.46;63.06
37852;BME280;23691;52.486;4.650;2023-12-29T12:55:40;100543.94;;;12.54;63.28